sensor_id;sensor_type;location;lat;lon;timestamp;P1;durP1;ratioP1;P2;durP2;ratioP2
4375;SDS011;2202;50.866;12.750;2022-08-19T00:01:55;61.50;;;45.27;;
4375;SDS011;2202;50.866;12.750;2022-08-19T00:04:24;60.43;;;44.03;;
4375;SDS011;2202;50.866;12.750;2022-08-19T00:06:52;60.27;;;43.67;;
4375;SDS011;2202;50.866;12.750;2022-08-19T00:09:21;58.27;;;43.93;;
4375;SDS011;2202;50.866;12.750;2022-08-19T00:11:50;60.23;;;41.70;;
4375;SDS011;2202;50.866;12.750;2022-08-19T00:14:18;65.80;;;42.50;;
4375;SDS011;2202;50.866;12.750;2022-08-19T00:16:46;64.67;;;43.27;;
4375;SDS011;2202;50.866;12.750;2022-08-19T00:19:17;63.27;;;43.50;;
4375;SDS011;2202;50.866;12.750;2022-08-19T00:21:44;68.33;;;45.33;;
4375;SDS011;2202;50.866;12.750;2022-08-19T00:24:12;66.40;;;47.33;;
4375;SDS011;2202;50.866;12.750;2022-08-19T00:26:43;61.73;;;45.00;;
4375;SDS011;2202;50.866;12.750;2022-08-19T00:29:11;62.13;;;43.43;;
4375;SDS011;2202;50.866;12.750;2022-08-19T00:31:40;63.50;;;43.80;;
4375;SDS011;2202;50.866;12.750;2022-08-19T00:34:08;60.60;;;43.57;;
4375;SDS011;2202;50.866;12.750;2022-08-19T00:36:35;59.37;;;40.23;;
4375;SDS011;2202;50.866;12.750;2022-08-19T00:39:03;56.83;;;40.97;;
4375;SDS011;2202;50.866;12.750;2022-08-19T00:41:30;59.47;;;42.30;;
4375;SDS011;2202;50.866;12.750;2022-08-19T00:44:00;59.27;;;42.70;;
4375;SDS011;2202;50.866;12.750;2022-08-19T00:46:31;55.53;;;40.43;;
4375;SDS011;2202;50.866;12.750;2022-08-19T00:49:00;58.37;;;42.17;;
4375;SDS011;2202;50.866;12.750;2022-08-19T00:51:32;56.80;;;41.30;;
4375;SDS011;2202;50.866;12.750;2022-08-19T00:53:59;65.20;;;44.50;;
4375;SDS011;2202;50.866;12.750;2022-08-19T00:56:27;64.47;;;43.50;;
4375;SDS011;2202;50.866;12.750;2022-08-19T00:58:56;64.57;;;41.73;;
4375;SDS011;2202;50.866;12.750;2022-08-19T01:01:26;65.93;;;46.70;;
4375;SDS011;2202;50.866;12.750;2022-08-19T01:03:53;58.63;;;42.57;;
4375;SDS011;2202;50.866;12.750;2022-08-19T01:06:20;57.93;;;41.00;;
4375;SDS011;2202;50.866;12.750;2022-08-19T01:08:47;57.27;;;40.73;;
4375;SDS011;2202;50.866;12.750;2022-08-19T01:11:14;53.40;;;37.73;;
4375;SDS011;2202;50.866;12.750;2022-08-19T01:13:41;53.67;;;37.23;;
4375;SDS011;2202;50.866;12.750;2022-08-19T01:16:10;48.97;;;34.70;;
4375;SDS011;2202;50.866;12.750;2022-08-19T01:18:41;48.00;;;36.60;;
4375;SDS011;2202;50.866;12.750;2022-08-19T01:21:10;48.07;;;35.57;;
4375;SDS011;2202;50.866;12.750;2022-08-19T01:23:42;48.90;;;36.87;;
4375;SDS011;2202;50.866;12.750;2022-08-19T01:26:11;45.47;;;34.27;;
4375;SDS011;2202;50.866;12.750;2022-08-19T01:28:40;52.57;;;36.30;;
4375;SDS011;2202;50.866;12.750;2022-08-19T01:31:09;45.77;;;35.10;;
4375;SDS011;2202;50.866;12.750;2022-08-19T01:33:39;48.60;;;35.53;;
4375;SDS011;2202;50.866;12.750;2022-08-19T01:36:07;50.07;;;36.87;;
4375;SDS011;2202;50.866;12.750;2022-08-19T01:38:38;49.87;;;34.90;;
4375;SDS011;2202;50.866;12.750;2022-08-19T01:41:09;57.90;;;34.10;;
4375;SDS011;2202;50.866;12.750;2022-08-19T01:43:36;42.53;;;32.50;;
4375;SDS011;2202;50.866;12.750;2022-08-19T01:46:03;43.23;;;32.40;;
4375;SDS011;2202;50.866;12.750;2022-08-19T01:48:34;42.13;;;32.83;;
4375;SDS011;2202;50.866;12.750;2022-08-19T01:51:02;41.27;;;32.03;;
4375;SDS011;2202;50.866;12.750;2022-08-19T01:53:29;43.10;;;32.80;;
4375;SDS011;2202;50.866;12.750;2022-08-19T01:55:56;41.20;;;31.40;;
4375;SDS011;2202;50.866;12.750;2022-08-19T01:58:24;42.77;;;33.13;;
4375;SDS011;2202;50.866;12.750;2022-08-19T02:00:55;46.80;;;34.70;;
4375;SDS011;2202;50.866;12.750;2022-08-19T02:03:22;46.50;;;34.13;;
4375;SDS011;2202;50.866;12.750;2022-08-19T02:05:53;46.17;;;34.57;;
4375;SDS011;2202;50.866;12.750;2022-08-19T02:08:22;51.27;;;36.10;;
4375;SDS011;2202;50.866;12.750;2022-08-19T02:10:49;50.10;;;36.60;;
4375;SDS011;2202;50.866;12.750;2022-08-19T02:13:16;54.77;;;37.07;;
4375;SDS011;2202;50.866;12.750;2022-08-19T02:15:45;43.37;;;32.80;;
4375;SDS011;2202;50.866;12.750;2022-08-19T02:18:12;50.27;;;38.20;;
4375;SDS011;2202;50.866;12.750;2022-08-19T02:20:40;52.23;;;38.97;;
4375;SDS011;2202;50.866;12.750;2022-08-19T02:23:08;59.47;;;41.47;;
4375;SDS011;2202;50.866;12.750;2022-08-19T02:25:36;59.03;;;42.77;;
4375;SDS011;2202;50.866;12.750;2022-08-19T02:28:04;66.40;;;44.57;;
4375;SDS011;2202;50.866;12.750;2022-08-19T02:30:31;65.57;;;46.10;;
4375;SDS011;2202;50.866;12.750;2022-08-19T02:32:59;73.40;;;50.67;;
4375;SDS011;2202;50.866;12.750;2022-08-19T02:35:26;75.43;;;48.70;;
4375;SDS011;2202;50.866;12.750;2022-08-19T02:37:53;73.63;;;48.03;;
4375;SDS011;2202;50.866;12.750;2022-08-19T02:40:38;65.83;;;44.07;;
4375;SDS011;2202;50.866;12.750;2022-08-19T02:43:05;69.20;;;47.67;;
4375;SDS011;2202;50.866;12.750;2022-08-19T02:45:33;67.60;;;45.80;;
4375;SDS011;2202;50.866;12.750;2022-08-19T02:48:03;62.80;;;46.93;;
4375;SDS011;2202;50.866;12.750;2022-08-19T02:50:31;69.30;;;45.50;;
4375;SDS011;2202;50.866;12.750;2022-08-19T02:52:58;77.23;;;47.90;;
4375;SDS011;2202;50.866;12.750;2022-08-19T02:55:25;74.27;;;49.03;;
4375;SDS011;2202;50.866;12.750;2022-08-19T02:57:52;72.53;;;44.93;;
4375;SDS011;2202;50.866;12.750;2022-08-19T03:00:19;68.70;;;45.37;;
4375;SDS011;2202;50.866;12.750;2022-08-19T03:02:46;69.00;;;45.50;;
4375;SDS011;2202;50.866;12.750;2022-08-19T03:05:15;65.23;;;46.50;;
4375;SDS011;2202;50.866;12.750;2022-08-19T03:07:42;60.93;;;43.10;;
4375;SDS011;2202;50.866;12.750;2022-08-19T03:10:09;57.13;;;40.70;;
4375;SDS011;2202;50.866;12.750;2022-08-19T03:12:36;63.93;;;43.10;;
4375;SDS011;2202;50.866;12.750;2022-08-19T03:15:05;63.23;;;42.40;;
4375;SDS011;2202;50.866;12.750;2022-08-19T03:17:34;72.13;;;45.00;;
4375;SDS011;2202;50.866;12.750;2022-08-19T03:20:01;103.90;;;46.20;;
4375;SDS011;2202;50.866;12.750;2022-08-19T03:22:30;68.63;;;44.10;;
4375;SDS011;2202;50.866;12.750;2022-08-19T03:24:57;108.07;;;48.00;;
4375;SDS011;2202;50.866;12.750;2022-08-19T03:27:24;70.90;;;44.80;;
4375;SDS011;2202;50.866;12.750;2022-08-19T03:29:52;84.00;;;46.67;;
4375;SDS011;2202;50.866;12.750;2022-08-19T03:32:18;95.43;;;48.00;;
4375;SDS011;2202;50.866;12.750;2022-08-19T03:34:46;87.87;;;48.10;;
4375;SDS011;2202;50.866;12.750;2022-08-19T03:37:14;160.00;;;51.87;;
4375;SDS011;2202;50.866;12.750;2022-08-19T03:39:42;79.87;;;49.53;;
4375;SDS011;2202;50.866;12.750;2022-08-19T03:42:09;96.10;;;49.57;;
4375;SDS011;2202;50.866;12.750;2022-08-19T03:44:37;141.30;;;50.03;;
4375;SDS011;2202;50.866;12.750;2022-08-19T03:47:04;129.17;;;49.57;;
4375;SDS011;2202;50.866;12.750;2022-08-19T03:49:31;172.40;;;53.67;;
4375;SDS011;2202;50.866;12.750;2022-08-19T03:52:00;122.30;;;50.30;;
4375;SDS011;2202;50.866;12.750;2022-08-19T03:54:30;229.07;;;55.90;;
4375;SDS011;2202;50.866;12.750;2022-08-19T03:56:58;188.57;;;59.40;;
4375;SDS011;2202;50.866;12.750;2022-08-19T03:59:29;189.20;;;52.70;;
4375;SDS011;2202;50.866;12.750;2022-08-19T04:01:58;139.30;;;52.07;;
4375;SDS011;2202;50.866;12.750;2022-08-19T04:04:27;331.73;;;64.00;;
4375;SDS011;2202;50.866;12.750;2022-08-19T04:06:55;191.33;;;56.83;;
4375;SDS011;2202;50.866;12.750;2022-08-19T04:09:22;163.37;;;54.30;;
4375;SDS011;2202;50.866;12.750;2022-08-19T04:11:51;172.30;;;55.13;;
4375;SDS011;2202;50.866;12.750;2022-08-19T04:14:22;151.47;;;55.60;;
4375;SDS011;2202;50.866;12.750;2022-08-19T04:16:50;278.77;;;57.53;;
4375;SDS011;2202;50.866;12.750;2022-08-19T04:19:19;241.23;;;58.13;;
4375;SDS011;2202;50.866;12.750;2022-08-19T04:21:48;384.73;;;69.87;;
4375;SDS011;2202;50.866;12.750;2022-08-19T04:24:16;254.53;;;59.63;;
4375;SDS011;2202;50.866;12.750;2022-08-19T04:26:43;291.30;;;59.43;;
4375;SDS011;2202;50.866;12.750;2022-08-19T04:29:12;395.37;;;71.00;;
4375;SDS011;2202;50.866;12.750;2022-08-19T04:31:42;237.60;;;63.83;;
4375;SDS011;2202;50.866;12.750;2022-08-19T04:34:10;276.83;;;61.90;;
4375;SDS011;2202;50.866;12.750;2022-08-19T04:36:39;331.63;;;69.50;;
4375;SDS011;2202;50.866;12.750;2022-08-19T04:39:10;290.13;;;65.30;;
4375;SDS011;2202;50.866;12.750;2022-08-19T04:41:39;353.20;;;67.80;;
4375;SDS011;2202;50.866;12.750;2022-08-19T04:44:23;276.83;;;59.77;;
4375;SDS011;2202;50.866;12.750;2022-08-19T04:46:52;252.53;;;60.97;;
4375;SDS011;2202;50.866;12.750;2022-08-19T04:49:20;187.80;;;56.90;;
4375;SDS011;2202;50.866;12.750;2022-08-19T04:51:48;213.67;;;62.43;;
4375;SDS011;2202;50.866;12.750;2022-08-19T04:54:19;146.80;;;55.87;;
4375;SDS011;2202;50.866;12.750;2022-08-19T04:56:47;212.53;;;59.80;;
4375;SDS011;2202;50.866;12.750;2022-08-19T04:59:15;167.93;;;56.20;;
4375;SDS011;2202;50.866;12.750;2022-08-19T05:01:43;108.40;;;52.07;;
4375;SDS011;2202;50.866;12.750;2022-08-19T05:04:16;169.10;;;55.07;;
4375;SDS011;2202;50.866;12.750;2022-08-19T05:06:45;100.50;;;51.23;;
4375;SDS011;2202;50.866;12.750;2022-08-19T05:09:12;147.23;;;57.37;;
4375;SDS011;2202;50.866;12.750;2022-08-19T05:11:40;95.80;;;50.93;;
4375;SDS011;2202;50.866;12.750;2022-08-19T05:14:08;123.80;;;51.87;;
4375;SDS011;2202;50.866;12.750;2022-08-19T05:16:37;151.13;;;56.70;;
4375;SDS011;2202;50.866;12.750;2022-08-19T05:19:04;183.60;;;60.30;;
4375;SDS011;2202;50.866;12.750;2022-08-19T05:21:50;124.63;;;55.93;;
4375;SDS011;2202;50.866;12.750;2022-08-19T05:24:34;149.23;;;57.67;;
4375;SDS011;2202;50.866;12.750;2022-08-19T05:27:02;111.23;;;55.80;;
4375;SDS011;2202;50.866;12.750;2022-08-19T05:29:30;131.27;;;56.60;;
4375;SDS011;2202;50.866;12.750;2022-08-19T05:31:59;136.77;;;58.07;;
4375;SDS011;2202;50.866;12.750;2022-08-19T05:34:26;110.87;;;53.83;;
4375;SDS011;2202;50.866;12.750;2022-08-19T05:36:55;120.17;;;53.90;;
4375;SDS011;2202;50.866;12.750;2022-08-19T05:39:25;141.30;;;54.60;;
4375;SDS011;2202;50.866;12.750;2022-08-19T05:41:56;129.17;;;56.77;;
4375;SDS011;2202;50.866;12.750;2022-08-19T05:44:24;117.10;;;53.93;;
4375;SDS011;2202;50.866;12.750;2022-08-19T05:46:52;110.97;;;54.63;;
4375;SDS011;2202;50.866;12.750;2022-08-19T05:49:20;93.07;;;52.00;;
4375;SDS011;2202;50.866;12.750;2022-08-19T05:51:49;103.90;;;51.67;;
4375;SDS011;2202;50.866;12.750;2022-08-19T05:54:17;87.10;;;50.77;;
4375;SDS011;2202;50.866;12.750;2022-08-19T05:56:45;115.50;;;52.00;;
4375;SDS011;2202;50.866;12.750;2022-08-19T05:59:13;105.23;;;51.00;;
4375;SDS011;2202;50.866;12.750;2022-08-19T06:01:41;96.30;;;51.03;;
4375;SDS011;2202;50.866;12.750;2022-08-19T06:04:09;104.00;;;50.70;;
4375;SDS011;2202;50.866;12.750;2022-08-19T06:06:37;97.53;;;49.47;;
4375;SDS011;2202;50.866;12.750;2022-08-19T06:09:05;78.20;;;46.00;;
4375;SDS011;2202;50.866;12.750;2022-08-19T06:11:36;73.27;;;43.60;;
4375;SDS011;2202;50.866;12.750;2022-08-19T06:14:06;74.53;;;44.80;;
4375;SDS011;2202;50.866;12.750;2022-08-19T06:16:34;69.87;;;42.50;;
4375;SDS011;2202;50.866;12.750;2022-08-19T06:19:04;69.50;;;43.30;;
4375;SDS011;2202;50.866;12.750;2022-08-19T06:21:33;78.57;;;42.70;;
4375;SDS011;2202;50.866;12.750;2022-08-19T06:24:03;75.93;;;44.20;;
4375;SDS011;2202;50.866;12.750;2022-08-19T06:26:32;93.67;;;47.33;;
4375;SDS011;2202;50.866;12.750;2022-08-19T06:29:01;84.43;;;46.30;;
4375;SDS011;2202;50.866;12.750;2022-08-19T06:31:31;94.23;;;49.60;;
4375;SDS011;2202;50.866;12.750;2022-08-19T06:33:59;88.50;;;45.47;;
4375;SDS011;2202;50.866;12.750;2022-08-19T06:36:29;131.90;;;48.23;;
4375;SDS011;2202;50.866;12.750;2022-08-19T06:38:59;90.07;;;44.00;;
4375;SDS011;2202;50.866;12.750;2022-08-19T06:41:27;102.97;;;45.13;;
4375;SDS011;2202;50.866;12.750;2022-08-19T06:43:54;114.20;;;44.20;;
4375;SDS011;2202;50.866;12.750;2022-08-19T06:46:23;163.63;;;49.80;;
4375;SDS011;2202;50.866;12.750;2022-08-19T06:48:51;334.60;;;62.10;;
4375;SDS011;2202;50.866;12.750;2022-08-19T06:51:19;200.97;;;54.83;;
4375;SDS011;2202;50.866;12.750;2022-08-19T06:53:47;250.17;;;58.00;;
4375;SDS011;2202;50.866;12.750;2022-08-19T06:56:15;313.80;;;65.90;;
4375;SDS011;2202;50.866;12.750;2022-08-19T06:58:44;295.13;;;67.87;;
4375;SDS011;2202;50.866;12.750;2022-08-19T07:01:11;177.03;;;57.60;;
4375;SDS011;2202;50.866;12.750;2022-08-19T07:03:40;112.67;;;53.27;;
4375;SDS011;2202;50.866;12.750;2022-08-19T07:06:08;97.17;;;52.87;;
4375;SDS011;2202;50.866;12.750;2022-08-19T07:08:37;96.87;;;51.07;;
4375;SDS011;2202;50.866;12.750;2022-08-19T07:11:06;109.27;;;53.80;;
4375;SDS011;2202;50.866;12.750;2022-08-19T07:13:33;95.53;;;51.70;;
4375;SDS011;2202;50.866;12.750;2022-08-19T07:16:02;86.03;;;48.90;;
4375;SDS011;2202;50.866;12.750;2022-08-19T07:18:30;89.53;;;49.00;;
4375;SDS011;2202;50.866;12.750;2022-08-19T07:21:03;81.20;;;47.33;;
4375;SDS011;2202;50.866;12.750;2022-08-19T07:23:31;72.93;;;45.70;;
4375;SDS011;2202;50.866;12.750;2022-08-19T07:26:03;64.93;;;43.40;;
4375;SDS011;2202;50.866;12.750;2022-08-19T07:28:31;69.20;;;43.40;;
4375;SDS011;2202;50.866;12.750;2022-08-19T07:30:58;62.57;;;42.40;;
4375;SDS011;2202;50.866;12.750;2022-08-19T07:33:27;58.07;;;40.97;;
4375;SDS011;2202;50.866;12.750;2022-08-19T07:35:57;55.17;;;39.67;;
4375;SDS011;2202;50.866;12.750;2022-08-19T07:38:25;58.87;;;39.80;;
4375;SDS011;2202;50.866;12.750;2022-08-19T07:40:52;54.13;;;37.70;;
4375;SDS011;2202;50.866;12.750;2022-08-19T07:43:19;65.53;;;43.37;;
4375;SDS011;2202;50.866;12.750;2022-08-19T07:45:50;64.50;;;44.53;;
4375;SDS011;2202;50.866;12.750;2022-08-19T07:48:17;62.23;;;43.30;;
4375;SDS011;2202;50.866;12.750;2022-08-19T07:50:44;73.13;;;44.00;;
4375;SDS011;2202;50.866;12.750;2022-08-19T07:53:13;71.80;;;51.30;;
4375;SDS011;2202;50.866;12.750;2022-08-19T07:55:41;72.27;;;47.17;;
4375;SDS011;2202;50.866;12.750;2022-08-19T07:58:09;76.13;;;48.93;;
4375;SDS011;2202;50.866;12.750;2022-08-19T08:00:37;80.37;;;51.93;;
4375;SDS011;2202;50.866;12.750;2022-08-19T08:03:04;77.60;;;50.83;;
4375;SDS011;2202;50.866;12.750;2022-08-19T08:05:33;83.63;;;52.20;;
4375;SDS011;2202;50.866;12.750;2022-08-19T08:08:17;83.00;;;52.97;;
4375;SDS011;2202;50.866;12.750;2022-08-19T08:11:03;83.83;;;51.20;;
4375;SDS011;2202;50.866;12.750;2022-08-19T08:13:30;83.77;;;51.77;;
4375;SDS011;2202;50.866;12.750;2022-08-19T08:15:57;69.07;;;48.10;;
4375;SDS011;2202;50.866;12.750;2022-08-19T08:18:24;87.23;;;53.37;;
4375;SDS011;2202;50.866;12.750;2022-08-19T08:20:51;79.73;;;52.17;;
4375;SDS011;2202;50.866;12.750;2022-08-19T08:23:18;93.53;;;54.47;;
4375;SDS011;2202;50.866;12.750;2022-08-19T08:25:50;96.97;;;56.07;;
4375;SDS011;2202;50.866;12.750;2022-08-19T08:28:19;91.07;;;54.67;;
4375;SDS011;2202;50.866;12.750;2022-08-19T08:30:47;90.37;;;56.50;;
4375;SDS011;2202;50.866;12.750;2022-08-19T08:33:17;100.80;;;58.90;;
4375;SDS011;2202;50.866;12.750;2022-08-19T08:35:46;101.13;;;60.23;;
4375;SDS011;2202;50.866;12.750;2022-08-19T08:38:13;101.27;;;61.33;;
4375;SDS011;2202;50.866;12.750;2022-08-19T08:40:43;93.20;;;56.63;;
4375;SDS011;2202;50.866;12.750;2022-08-19T08:43:21;90.50;;;58.60;;
4375;SDS011;2202;50.866;12.750;2022-08-19T08:45:54;98.37;;;58.77;;
4375;SDS011;2202;50.866;12.750;2022-08-19T08:48:34;96.00;;;57.23;;
4375;SDS011;2202;50.866;12.750;2022-08-19T08:51:06;94.10;;;56.20;;
4375;SDS011;2202;50.866;12.750;2022-08-19T08:53:36;101.57;;;59.87;;
4375;SDS011;2202;50.866;12.750;2022-08-19T08:56:04;97.57;;;59.17;;
4375;SDS011;2202;50.866;12.750;2022-08-19T08:58:41;92.70;;;56.53;;
4375;SDS011;2202;50.866;12.750;2022-08-19T09:01:14;97.10;;;54.93;;
4375;SDS011;2202;50.866;12.750;2022-08-19T09:03:42;106.33;;;67.30;;
4375;SDS011;2202;50.866;12.750;2022-08-19T09:06:12;93.83;;;57.60;;
4375;SDS011;2202;50.866;12.750;2022-08-19T09:08:47;94.80;;;56.03;;
4375;SDS011;2202;50.866;12.750;2022-08-19T09:11:33;106.30;;;56.40;;
4375;SDS011;2202;50.866;12.750;2022-08-19T09:14:14;94.43;;;55.50;;
4375;SDS011;2202;50.866;12.750;2022-08-19T09:16:50;96.80;;;55.20;;
4375;SDS011;2202;50.866;12.750;2022-08-19T09:19:17;86.43;;;54.37;;
4375;SDS011;2202;50.866;12.750;2022-08-19T09:21:43;98.67;;;56.70;;
4375;SDS011;2202;50.866;12.750;2022-08-19T09:24:11;81.37;;;54.07;;
4375;SDS011;2202;50.866;12.750;2022-08-19T09:26:38;88.97;;;54.70;;
4375;SDS011;2202;50.866;12.750;2022-08-19T09:29:05;95.83;;;54.97;;
4375;SDS011;2202;50.866;12.750;2022-08-19T09:31:33;102.00;;;56.27;;
4375;SDS011;2202;50.866;12.750;2022-08-19T09:34:00;99.90;;;54.20;;
4375;SDS011;2202;50.866;12.750;2022-08-19T09:36:31;99.97;;;57.80;;
4375;SDS011;2202;50.866;12.750;2022-08-19T09:39:01;114.03;;;60.73;;
4375;SDS011;2202;50.866;12.750;2022-08-19T09:41:28;105.70;;;58.90;;
4375;SDS011;2202;50.866;12.750;2022-08-19T09:43:56;103.57;;;60.93;;
4375;SDS011;2202;50.866;12.750;2022-08-19T09:46:25;113.60;;;61.73;;
4375;SDS011;2202;50.866;12.750;2022-08-19T09:48:54;107.87;;;60.70;;
4375;SDS011;2202;50.866;12.750;2022-08-19T09:51:25;127.50;;;58.53;;
4375;SDS011;2202;50.866;12.750;2022-08-19T09:53:53;108.60;;;55.97;;
4375;SDS011;2202;50.866;12.750;2022-08-19T09:56:21;118.10;;;63.90;;
4375;SDS011;2202;50.866;12.750;2022-08-19T09:58:49;118.97;;;61.67;;
4375;SDS011;2202;50.866;12.750;2022-08-19T10:01:17;108.27;;;61.67;;
4375;SDS011;2202;50.866;12.750;2022-08-19T10:03:47;107.43;;;58.67;;
4375;SDS011;2202;50.866;12.750;2022-08-19T10:06:17;98.27;;;56.93;;
4375;SDS011;2202;50.866;12.750;2022-08-19T10:08:44;85.20;;;53.80;;
4375;SDS011;2202;50.866;12.750;2022-08-19T10:11:12;75.33;;;46.00;;
4375;SDS011;2202;50.866;12.750;2022-08-19T10:13:42;67.67;;;45.07;;
4375;SDS011;2202;50.866;12.750;2022-08-19T10:16:11;69.60;;;45.97;;
4375;SDS011;2202;50.866;12.750;2022-08-19T10:18:39;69.67;;;46.10;;
4375;SDS011;2202;50.866;12.750;2022-08-19T10:21:09;64.83;;;45.40;;
4375;SDS011;2202;50.866;12.750;2022-08-19T10:23:40;76.77;;;48.47;;
4375;SDS011;2202;50.866;12.750;2022-08-19T10:26:11;80.60;;;50.60;;
4375;SDS011;2202;50.866;12.750;2022-08-19T10:28:43;94.57;;;56.03;;
4375;SDS011;2202;50.866;12.750;2022-08-19T10:31:11;97.23;;;56.80;;
4375;SDS011;2202;50.866;12.750;2022-08-19T10:33:39;120.80;;;66.40;;
4375;SDS011;2202;50.866;12.750;2022-08-19T10:36:08;129.83;;;68.47;;
4375;SDS011;2202;50.866;12.750;2022-08-19T10:38:36;145.20;;;75.23;;
4375;SDS011;2202;50.866;12.750;2022-08-19T10:41:08;144.73;;;74.80;;
4375;SDS011;2202;50.866;12.750;2022-08-19T10:43:37;140.93;;;74.60;;
4375;SDS011;2202;50.866;12.750;2022-08-19T10:46:05;122.60;;;69.20;;
4375;SDS011;2202;50.866;12.750;2022-08-19T10:48:33;141.70;;;70.90;;
4375;SDS011;2202;50.866;12.750;2022-08-19T10:51:00;122.03;;;65.67;;
4375;SDS011;2202;50.866;12.750;2022-08-19T10:53:45;117.57;;;63.93;;
4375;SDS011;2202;50.866;12.750;2022-08-19T10:56:14;109.30;;;60.80;;
4375;SDS011;2202;50.866;12.750;2022-08-19T10:58:58;107.60;;;61.90;;
4375;SDS011;2202;50.866;12.750;2022-08-19T11:01:26;105.77;;;59.87;;
4375;SDS011;2202;50.866;12.750;2022-08-19T11:03:54;102.53;;;58.37;;
4375;SDS011;2202;50.866;12.750;2022-08-19T11:06:22;103.90;;;59.20;;
4375;SDS011;2202;50.866;12.750;2022-08-19T11:08:51;89.40;;;54.03;;
4375;SDS011;2202;50.866;12.750;2022-08-19T11:11:22;93.23;;;52.60;;
4375;SDS011;2202;50.866;12.750;2022-08-19T11:13:49;118.27;;;56.27;;
4375;SDS011;2202;50.866;12.750;2022-08-19T11:16:18;112.40;;;56.90;;
4375;SDS011;2202;50.866;12.750;2022-08-19T11:18:47;109.00;;;58.03;;
4375;SDS011;2202;50.866;12.750;2022-08-19T11:21:16;119.17;;;60.70;;
4375;SDS011;2202;50.866;12.750;2022-08-19T11:23:45;117.43;;;61.30;;
4375;SDS011;2202;50.866;12.750;2022-08-19T11:26:13;120.10;;;66.50;;
4375;SDS011;2202;50.866;12.750;2022-08-19T11:28:42;127.20;;;65.67;;
4375;SDS011;2202;50.866;12.750;2022-08-19T11:31:10;129.07;;;67.80;;
4375;SDS011;2202;50.866;12.750;2022-08-19T11:33:38;145.07;;;72.97;;
4375;SDS011;2202;50.866;12.750;2022-08-19T11:36:05;143.40;;;68.90;;
4375;SDS011;2202;50.866;12.750;2022-08-19T11:38:32;132.97;;;66.67;;
4375;SDS011;2202;50.866;12.750;2022-08-19T11:41:01;152.67;;;72.37;;
4375;SDS011;2202;50.866;12.750;2022-08-19T11:43:33;129.17;;;67.10;;
4375;SDS011;2202;50.866;12.750;2022-08-19T11:46:04;141.13;;;70.93;;
4375;SDS011;2202;50.866;12.750;2022-08-19T11:48:32;135.73;;;70.37;;
4375;SDS011;2202;50.866;12.750;2022-08-19T11:51:02;128.93;;;68.63;;
4375;SDS011;2202;50.866;12.750;2022-08-19T11:53:31;118.00;;;64.83;;
4375;SDS011;2202;50.866;12.750;2022-08-19T11:55:59;109.80;;;63.23;;
4375;SDS011;2202;50.866;12.750;2022-08-19T11:58:27;113.87;;;64.27;;
4375;SDS011;2202;50.866;12.750;2022-08-19T12:00:55;118.43;;;63.00;;
4375;SDS011;2202;50.866;12.750;2022-08-19T12:03:24;108.37;;;61.57;;
4375;SDS011;2202;50.866;12.750;2022-08-19T12:05:51;117.60;;;64.30;;
4375;SDS011;2202;50.866;12.750;2022-08-19T12:08:18;118.97;;;64.87;;
4375;SDS011;2202;50.866;12.750;2022-08-19T12:10:45;109.63;;;64.20;;
4375;SDS011;2202;50.866;12.750;2022-08-19T12:13:12;116.07;;;64.57;;
4375;SDS011;2202;50.866;12.750;2022-08-19T12:15:46;130.77;;;68.60;;
4375;SDS011;2202;50.866;12.750;2022-08-19T12:18:14;115.87;;;63.90;;
4375;SDS011;2202;50.866;12.750;2022-08-19T12:20:42;112.73;;;61.43;;
4375;SDS011;2202;50.866;12.750;2022-08-19T12:23:10;112.13;;;62.77;;
4375;SDS011;2202;50.866;12.750;2022-08-19T12:25:42;117.80;;;64.03;;
4375;SDS011;2202;50.866;12.750;2022-08-19T12:28:13;108.80;;;62.33;;
4375;SDS011;2202;50.866;12.750;2022-08-19T12:30:40;124.10;;;65.00;;
4375;SDS011;2202;50.866;12.750;2022-08-19T12:33:07;110.27;;;61.83;;
4375;SDS011;2202;50.866;12.750;2022-08-19T12:35:34;120.33;;;66.83;;
4375;SDS011;2202;50.866;12.750;2022-08-19T12:38:03;132.97;;;64.80;;
4375;SDS011;2202;50.866;12.750;2022-08-19T12:40:30;114.67;;;64.27;;
4375;SDS011;2202;50.866;12.750;2022-08-19T12:42:57;118.50;;;62.83;;
4375;SDS011;2202;50.866;12.750;2022-08-19T12:45:24;112.17;;;61.13;;
4375;SDS011;2202;50.866;12.750;2022-08-19T12:47:51;98.30;;;55.70;;
4375;SDS011;2202;50.866;12.750;2022-08-19T12:50:18;109.93;;;60.73;;
4375;SDS011;2202;50.866;12.750;2022-08-19T12:52:46;103.40;;;58.77;;
4375;SDS011;2202;50.866;12.750;2022-08-19T12:55:15;108.03;;;59.50;;
4375;SDS011;2202;50.866;12.750;2022-08-19T12:57:43;104.17;;;57.40;;
4375;SDS011;2202;50.866;12.750;2022-08-19T13:00:11;112.73;;;58.87;;
4375;SDS011;2202;50.866;12.750;2022-08-19T13:02:41;100.00;;;57.77;;
4375;SDS011;2202;50.866;12.750;2022-08-19T13:05:11;90.47;;;55.20;;
4375;SDS011;2202;50.866;12.750;2022-08-19T13:07:40;105.93;;;58.43;;
4375;SDS011;2202;50.866;12.750;2022-08-19T13:10:09;104.77;;;58.17;;
4375;SDS011;2202;50.866;12.750;2022-08-19T13:12:41;106.93;;;58.67;;
4375;SDS011;2202;50.866;12.750;2022-08-19T13:15:09;116.13;;;60.67;;
4375;SDS011;2202;50.866;12.750;2022-08-19T13:17:40;93.83;;;55.27;;
4375;SDS011;2202;50.866;12.750;2022-08-19T13:20:08;101.57;;;58.40;;
4375;SDS011;2202;50.866;12.750;2022-08-19T13:22:36;105.33;;;57.47;;
4375;SDS011;2202;50.866;12.750;2022-08-19T13:25:04;89.37;;;55.17;;
4375;SDS011;2202;50.866;12.750;2022-08-19T13:27:32;89.57;;;53.10;;
4375;SDS011;2202;50.866;12.750;2022-08-19T13:30:01;87.30;;;54.97;;
4375;SDS011;2202;50.866;12.750;2022-08-19T13:32:47;102.40;;;55.50;;
4375;SDS011;2202;50.866;12.750;2022-08-19T13:35:30;97.33;;;56.30;;
4375;SDS011;2202;50.866;12.750;2022-08-19T13:37:57;99.97;;;58.37;;
4375;SDS011;2202;50.866;12.750;2022-08-19T13:40:30;93.80;;;55.63;;
4375;SDS011;2202;50.866;12.750;2022-08-19T13:42:59;98.30;;;57.30;;
4375;SDS011;2202;50.866;12.750;2022-08-19T13:45:28;98.20;;;56.10;;
4375;SDS011;2202;50.866;12.750;2022-08-19T13:47:59;94.03;;;54.27;;
4375;SDS011;2202;50.866;12.750;2022-08-19T13:50:32;96.07;;;55.37;;
4375;SDS011;2202;50.866;12.750;2022-08-19T13:52:59;92.33;;;56.03;;
4375;SDS011;2202;50.866;12.750;2022-08-19T13:55:27;93.07;;;56.30;;
4375;SDS011;2202;50.866;12.750;2022-08-19T13:57:55;100.37;;;58.40;;
4375;SDS011;2202;50.866;12.750;2022-08-19T14:00:24;85.63;;;54.07;;
4375;SDS011;2202;50.866;12.750;2022-08-19T14:02:54;87.13;;;55.27;;
4375;SDS011;2202;50.866;12.750;2022-08-19T14:05:23;77.23;;;51.80;;
4375;SDS011;2202;50.866;12.750;2022-08-19T14:07:51;76.93;;;50.27;;
4375;SDS011;2202;50.866;12.750;2022-08-19T14:10:18;69.63;;;49.77;;
4375;SDS011;2202;50.866;12.750;2022-08-19T14:12:46;69.23;;;46.63;;
4375;SDS011;2202;50.866;12.750;2022-08-19T14:15:14;71.33;;;48.20;;
4375;SDS011;2202;50.866;12.750;2022-08-19T14:17:42;63.50;;;44.80;;
4375;SDS011;2202;50.866;12.750;2022-08-19T14:20:13;73.30;;;47.03;;
4375;SDS011;2202;50.866;12.750;2022-08-19T14:22:41;77.77;;;45.33;;
4375;SDS011;2202;50.866;12.750;2022-08-19T14:25:10;72.13;;;46.20;;
4375;SDS011;2202;50.866;12.750;2022-08-19T14:27:42;71.03;;;42.77;;
4375;SDS011;2202;50.866;12.750;2022-08-19T14:30:11;66.90;;;44.47;;
4375;SDS011;2202;50.866;12.750;2022-08-19T14:32:40;66.67;;;45.30;;
4375;SDS011;2202;50.866;12.750;2022-08-19T14:35:08;74.90;;;44.13;;
4375;SDS011;2202;50.866;12.750;2022-08-19T14:37:39;73.70;;;46.20;;
4375;SDS011;2202;50.866;12.750;2022-08-19T14:40:07;70.73;;;45.27;;